createdAt,value
2019-05-09T00:00:26.362Z,2.50
2019-05-09T00:02:54.845Z,2.17
2019-05-09T00:05:25.469Z,2.50
2019-05-09T00:07:53.548Z,2.57
2019-05-09T00:10:38.126Z,2.70
2019-05-09T00:12:54.044Z,2.47
2019-05-09T00:15:24.189Z,2.37
2019-05-09T00:17:53.346Z,2.80
2019-05-09T00:20:29.656Z,2.70
2019-05-09T00:22:58.149Z,3.00
2019-05-09T00:25:26.633Z,2.60
2019-05-09T00:27:55.121Z,2.50
2019-05-09T00:30:43.660Z,2.73
2019-05-09T00:33:14.282Z,2.77
2019-05-09T00:35:44.235Z,2.50
2019-05-09T00:38:13.361Z,2.40
2019-05-09T00:40:55.257Z,2.70
2019-05-09T00:43:13.211Z,2.23
2019-05-09T00:45:46.040Z,2.20
2019-05-09T00:48:16.180Z,2.80
2019-05-09T00:50:44.641Z,2.70
2019-05-09T00:53:17.285Z,2.60
2019-05-09T00:55:45.755Z,2.80
2019-05-09T00:58:14.577Z,2.43
2019-05-09T01:00:43.992Z,2.80
2019-05-09T01:03:14.124Z,2.77
2019-05-09T01:05:43.624Z,2.93
2019-05-09T01:08:13.697Z,2.90
2019-05-09T01:10:43.600Z,2.80
2019-05-09T01:13:14.163Z,2.50
2019-05-09T01:15:44.040Z,2.63
2019-05-09T01:18:13.249Z,2.77
2019-05-09T01:20:43.905Z,2.87
2019-05-09T01:23:14.184Z,2.70
2019-05-09T01:25:43.590Z,2.60
2019-05-09T01:28:13.958Z,2.83
2019-05-09T01:30:43.984Z,2.63
2019-05-09T01:33:24.180Z,2.60
2019-05-09T01:35:54.074Z,2.80
2019-05-09T01:38:23.297Z,2.27
2019-05-09T01:40:53.307Z,2.83
2019-05-09T01:43:24.240Z,2.60
2019-05-09T01:45:54.076Z,2.43
2019-05-09T01:48:23.445Z,2.70
2019-05-09T01:50:53.736Z,2.40
2019-05-09T01:53:24.120Z,2.57
2019-05-09T01:55:58.593Z,2.73
2019-05-09T01:58:34.058Z,2.57
2019-05-09T02:01:04.255Z,2.70
2019-05-09T02:03:33.657Z,2.50
2019-05-09T02:06:03.545Z,2.60
2019-05-09T02:08:34.434Z,2.80
2019-05-09T02:11:03.777Z,3.03
2019-05-09T02:13:33.810Z,2.57
2019-05-09T02:16:06.937Z,2.73
2019-05-09T02:18:37.027Z,2.70
2019-05-09T02:21:05.508Z,2.73
2019-05-09T02:23:34.072Z,2.63
2019-05-09T02:26:04.036Z,2.70
2019-05-09T02:28:34.172Z,2.90
2019-05-09T02:31:05.230Z,2.67
2019-05-09T02:33:34.776Z,2.60
2019-05-09T02:36:03.192Z,2.57
2019-05-09T02:38:31.671Z,2.57
2019-05-09T02:41:00.159Z,2.70
2019-05-09T02:43:29.223Z,2.80
2019-05-09T02:46:11.517Z,2.73
2019-05-09T02:48:39.993Z,2.70
2019-05-09T02:51:09.395Z,2.23
2019-05-09T02:53:39.483Z,2.50
2019-05-09T02:56:09.149Z,2.37
2019-05-09T02:58:48.332Z,2.40
2019-05-09T03:01:18.951Z,2.60
2019-05-09T03:03:48.278Z,2.60
2019-05-09T03:06:19.654Z,2.30
2019-05-09T03:08:49.062Z,2.60
2019-05-09T03:11:18.752Z,2.50
2019-05-09T03:13:49.509Z,2.67
2019-05-09T03:16:19.041Z,2.37
2019-05-09T03:18:49.418Z,2.30
2019-05-09T03:21:19.674Z,2.27
2019-05-09T03:23:49.009Z,2.40
2019-05-09T03:26:19.599Z,2.63
2019-05-09T03:28:49.930Z,2.40
2019-05-09T03:31:20.065Z,2.40
2019-05-09T03:33:50.042Z,2.40
2019-05-09T03:36:18.735Z,2.60
2019-05-09T03:38:47.630Z,2.53
2019-05-09T03:41:17.692Z,2.40
2019-05-09T03:43:48.289Z,3.00
2019-05-09T03:46:28.047Z,2.63
2019-05-09T03:49:00.774Z,2.67
2019-05-09T03:51:29.250Z,2.40
2019-05-09T03:53:57.773Z,2.80
2019-05-09T03:56:31.499Z,2.23
2019-05-09T03:58:59.965Z,2.60
2019-05-09T04:01:28.769Z,2.40
2019-05-09T04:03:58.392Z,2.20
2019-05-09T04:06:28.232Z,2.33
2019-05-09T04:08:58.474Z,2.20
2019-05-09T04:11:27.650Z,2.30
2019-05-09T04:13:58.540Z,2.63
2019-05-09T04:16:27.678Z,2.20
2019-05-09T04:18:58.184Z,2.50
2019-05-09T04:21:28.011Z,2.50
2019-05-09T04:23:58.509Z,2.47
2019-05-09T04:26:28.548Z,2.20
2019-05-09T04:28:57.787Z,2.60
2019-05-09T04:31:28.032Z,2.47
2019-05-09T04:33:57.439Z,2.47
2019-05-09T04:36:41.168Z,2.43
2019-05-09T04:39:18.046Z,2.60
2019-05-09T04:41:42.400Z,2.47
2019-05-09T04:44:16.966Z,2.57
2019-05-09T04:46:42.765Z,2.57
2019-05-09T04:49:11.255Z,2.93
2019-05-09T04:51:39.707Z,2.53
2019-05-09T04:54:08.192Z,2.40
2019-05-09T04:56:38.351Z,2.70
2019-05-09T04:59:07.558Z,3.20
2019-05-09T05:01:38.959Z,2.50
2019-05-09T05:04:07.980Z,2.67
2019-05-09T05:06:40.260Z,2.53
2019-05-09T05:09:08.733Z,2.77
2019-05-09T05:11:38.319Z,2.77
2019-05-09T05:14:09.277Z,2.67
2019-05-09T05:16:39.161Z,2.63
2019-05-09T05:19:07.658Z,2.87
2019-05-09T05:21:37.793Z,2.80
2019-05-09T05:24:08.304Z,2.63
2019-05-09T05:26:38.031Z,2.57
2019-05-09T05:29:08.451Z,2.47
2019-05-09T05:31:38.812Z,2.80
2019-05-09T05:34:11.576Z,2.60
2019-05-09T05:36:40.046Z,2.67
2019-05-09T05:39:10.072Z,2.70
2019-05-09T05:41:38.552Z,2.60
2019-05-09T05:44:08.542Z,2.43
2019-05-09T05:46:55.391Z,3.03
2019-05-09T05:49:23.872Z,3.00
2019-05-09T05:51:52.343Z,2.73
2019-05-09T05:54:22.154Z,2.70
2019-05-09T05:56:50.776Z,2.60
2019-05-09T05:59:19.504Z,2.87
2019-05-09T06:01:48.085Z,2.90
2019-05-09T06:04:18.624Z,2.53
2019-05-09T06:06:48.085Z,2.90
2019-05-09T06:09:18.958Z,2.77
2019-05-09T06:11:48.448Z,2.50
2019-05-09T06:14:18.456Z,2.57
2019-05-09T06:16:48.555Z,2.80
2019-05-09T06:19:17.987Z,2.63
2019-05-09T06:21:48.559Z,2.40
2019-05-09T06:24:17.813Z,2.30
2019-05-09T06:26:47.901Z,2.00
2019-05-09T06:29:17.821Z,2.20
2019-05-09T06:31:48.447Z,2.27
2019-05-09T06:34:18.807Z,2.17
2019-05-09T06:36:48.885Z,2.30
2019-05-09T06:39:17.965Z,2.10
2019-05-09T06:41:48.341Z,2.23
2019-05-09T06:44:24.126Z,2.00
2019-05-09T06:47:00.204Z,1.93
2019-05-09T06:49:31.945Z,2.00
2019-05-09T06:52:00.657Z,1.97
2019-05-09T06:54:29.264Z,2.00
2019-05-09T06:56:58.604Z,2.30
2019-05-09T06:59:28.341Z,1.80
2019-05-09T07:01:58.727Z,1.80
2019-05-09T07:04:43.780Z,2.20
2019-05-09T07:07:17.630Z,2.00
2019-05-09T07:09:48.159Z,1.93
2019-05-09T07:12:18.084Z,2.10
2019-05-09T07:14:48.716Z,1.60
2019-05-09T07:17:18.359Z,2.00
2019-05-09T07:19:48.772Z,1.77
2019-05-09T07:22:18.933Z,2.00
2019-05-09T07:25:06.503Z,1.90
2019-05-09T07:27:39.187Z,1.93
2019-05-09T07:30:37.672Z,1.90
2019-05-09T07:33:23.068Z,1.80
2019-05-09T07:35:51.548Z,1.53
2019-05-09T07:38:30.382Z,1.57
2019-05-09T07:41:00.059Z,1.87
2019-05-09T07:43:28.787Z,1.73
2019-05-09T07:46:08.850Z,1.70
2019-05-09T07:48:38.685Z,1.70
2019-05-09T07:51:08.030Z,1.50
2019-05-09T07:53:38.065Z,1.80
2019-05-09T07:56:07.990Z,1.90
2019-05-09T07:58:37.728Z,1.57
2019-05-09T08:01:08.558Z,1.80
2019-05-09T08:03:38.424Z,1.50
2019-05-09T08:06:08.757Z,1.73
2019-05-09T08:08:38.474Z,1.83
2019-05-09T08:11:08.829Z,1.70
2019-05-09T08:13:39.236Z,2.00
2019-05-09T08:16:12.395Z,1.70
2019-05-09T08:18:38.012Z,1.87
2019-05-09T08:21:08.435Z,1.80
2019-05-09T08:23:37.984Z,2.03
2019-05-09T08:26:08.833Z,1.80
2019-05-09T08:28:38.935Z,2.00
2019-05-09T08:31:08.306Z,1.90
2019-05-09T08:33:38.046Z,1.70
2019-05-09T08:36:08.755Z,1.63
2019-05-09T08:38:39.018Z,1.87
2019-05-09T08:41:09.313Z,1.70
2019-05-09T08:43:39.360Z,1.80
2019-05-09T08:46:08.262Z,1.60
2019-05-09T08:48:37.826Z,2.10
2019-05-09T08:51:08.965Z,1.80
2019-05-09T08:53:38.158Z,2.10
2019-05-09T08:56:08.976Z,1.93
2019-05-09T08:58:38.219Z,2.23
2019-05-09T09:01:09.836Z,2.00
2019-05-09T09:03:37.771Z,2.07
2019-05-09T09:06:08.246Z,2.17
2019-05-09T09:08:37.976Z,2.70
2019-05-09T09:11:08.558Z,2.37
2019-05-09T09:13:37.840Z,2.73
2019-05-09T09:16:15.697Z,2.83
2019-05-09T09:18:38.772Z,2.23
2019-05-09T09:21:08.088Z,2.30
2019-05-09T09:23:44.152Z,2.37
2019-05-09T09:26:08.201Z,3.20
2019-05-09T09:28:37.977Z,3.30
2019-05-09T09:31:08.221Z,2.70
2019-05-09T09:33:37.646Z,3.00
2019-05-09T09:36:08.563Z,2.40
2019-05-09T09:38:37.566Z,2.00
2019-05-09T09:41:07.841Z,2.20
2019-05-09T09:43:38.388Z,1.97
2019-05-09T09:46:14.057Z,2.03
2019-05-09T09:48:38.925Z,2.10
2019-05-09T09:51:08.108Z,1.90
2019-05-09T09:53:38.438Z,1.80
2019-05-09T09:56:08.770Z,1.97
2019-05-09T09:58:38.026Z,1.60
2019-05-09T10:01:21.342Z,1.57
2019-05-09T10:03:51.584Z,1.60
2019-05-09T10:06:20.047Z,1.67
2019-05-09T10:08:49.100Z,1.70
2019-05-09T10:11:18.047Z,1.60
2019-05-09T10:13:48.089Z,1.80
2019-05-09T10:16:31.927Z,1.97
2019-05-09T10:19:02.869Z,2.03
2019-05-09T10:21:32.996Z,1.93
2019-05-09T10:24:01.478Z,1.90
2019-05-09T10:26:29.971Z,2.00
2019-05-09T10:28:58.536Z,1.97
2019-05-09T10:31:28.267Z,1.83
2019-05-09T10:33:58.054Z,1.80
2019-05-09T10:36:27.838Z,1.97
2019-05-09T10:38:58.504Z,1.80
2019-05-09T10:41:26.687Z,1.80
2019-05-09T10:43:57.872Z,1.50
2019-05-09T10:46:46.336Z,1.70
2019-05-09T10:49:00.009Z,1.50
2019-05-09T10:51:28.566Z,1.47
2019-05-09T10:53:58.804Z,1.53
2019-05-09T10:56:28.035Z,1.50
2019-05-09T10:58:58.424Z,1.50
2019-05-09T11:01:29.491Z,1.57
2019-05-09T11:03:58.967Z,1.77
2019-05-09T11:06:28.772Z,1.80
2019-05-09T11:08:58.560Z,1.77
2019-05-09T11:11:28.463Z,1.50
2019-05-09T11:13:58.785Z,1.70
2019-05-09T11:16:41.294Z,1.63
2019-05-09T11:18:58.490Z,1.63
2019-05-09T11:21:28.538Z,1.30
2019-05-09T11:23:58.281Z,1.30
2019-05-09T11:26:28.415Z,1.00
2019-05-09T11:28:58.783Z,1.47
2019-05-09T11:31:29.518Z,1.07
2019-05-09T11:33:58.159Z,1.07
2019-05-09T11:36:26.785Z,1.20
2019-05-09T11:38:55.257Z,1.10
2019-05-09T11:41:23.769Z,1.10
2019-05-09T11:43:52.223Z,1.10
2019-05-09T11:46:20.729Z,1.20
2019-05-09T11:48:49.229Z,1.40
2019-05-09T11:51:20.582Z,1.60
2019-05-09T11:53:48.768Z,1.83
2019-05-09T11:56:18.137Z,2.30
2019-05-09T11:58:48.179Z,2.10
2019-05-09T12:01:19.095Z,2.30
2019-05-09T12:03:49.917Z,2.20
2019-05-09T12:06:20.206Z,2.50
2019-05-09T12:08:48.438Z,2.40
2019-05-09T12:11:18.151Z,2.50
2019-05-09T12:13:48.496Z,2.60
2019-05-09T12:16:18.377Z,2.43
2019-05-09T12:18:49.060Z,2.43
2019-05-09T12:21:19.170Z,2.70
2019-05-09T12:23:48.775Z,2.17
2019-05-09T12:26:18.050Z,2.50
2019-05-09T12:28:48.403Z,2.47
2019-05-09T12:31:18.087Z,2.37
2019-05-09T12:33:48.280Z,2.27
2019-05-09T12:36:19.178Z,2.60
2019-05-09T12:38:49.674Z,2.70
2019-05-09T12:41:18.917Z,2.80
2019-05-09T12:43:47.816Z,2.20
2019-05-09T12:46:16.291Z,2.40
2019-05-09T12:48:44.759Z,2.60
2019-05-09T12:51:13.335Z,2.80
2019-05-09T12:53:41.812Z,2.80
2019-05-09T12:56:11.088Z,2.70
2019-05-09T12:58:39.569Z,2.80
2019-05-09T13:01:08.039Z,3.17
2019-05-09T13:03:38.176Z,2.40
2019-05-09T13:06:08.142Z,2.10
2019-05-09T13:08:38.472Z,2.47
2019-05-09T13:11:08.056Z,2.00
2019-05-09T13:13:40.890Z,2.10
2019-05-09T13:16:14.131Z,2.17
2019-05-09T13:19:02.475Z,2.03
2019-05-09T13:21:32.897Z,2.20
2019-05-09T13:23:59.988Z,1.90
2019-05-09T13:26:28.970Z,2.20
2019-05-09T13:28:58.843Z,2.27
2019-05-09T13:31:29.403Z,2.03
2019-05-09T13:33:58.669Z,2.40
2019-05-09T13:36:28.450Z,2.83
2019-05-09T13:39:04.216Z,2.20
2019-05-09T13:41:27.486Z,2.33
2019-05-09T13:43:59.375Z,2.27
2019-05-09T13:46:28.255Z,1.70
2019-05-09T13:49:08.261Z,1.47
2019-05-09T13:51:26.714Z,1.60
2019-05-09T13:53:55.293Z,1.53
2019-05-09T13:56:23.952Z,1.67
2019-05-09T13:58:52.450Z,1.80
2019-05-09T14:01:20.945Z,1.50
2019-05-09T14:03:49.500Z,1.80
2019-05-09T14:06:17.989Z,1.80
2019-05-09T14:08:48.962Z,1.80
2019-05-09T14:11:19.064Z,1.70
2019-05-09T14:13:48.830Z,1.70
2019-05-09T14:16:22.167Z,2.00
2019-05-09T14:18:48.609Z,1.70
2019-05-09T14:21:21.555Z,1.67
2019-05-09T14:24:01.047Z,1.70
2019-05-09T14:26:18.186Z,1.73
2019-05-09T14:28:48.898Z,1.50
2019-05-09T14:31:18.580Z,2.30
2019-05-09T14:33:47.778Z,1.50
2019-05-09T14:36:16.504Z,1.67
2019-05-09T14:38:45.061Z,1.80
2019-05-09T14:41:13.530Z,1.77
2019-05-09T14:43:42.064Z,1.80
2019-05-09T14:46:10.480Z,1.50
2019-05-09T14:48:38.973Z,1.50
2019-05-09T14:51:07.835Z,1.27
2019-05-09T14:53:38.918Z,1.37
2019-05-09T14:56:08.746Z,1.33
2019-05-09T14:58:38.837Z,1.63
2019-05-09T15:01:08.589Z,1.40
2019-05-09T15:03:38.833Z,1.20
2019-05-09T15:06:07.703Z,1.57
2019-05-09T15:08:38.164Z,1.30
2019-05-09T15:11:09.848Z,1.57
2019-05-09T15:13:36.655Z,1.33
2019-05-09T15:16:05.131Z,1.30
2019-05-09T15:18:33.607Z,1.30
2019-05-09T15:21:02.102Z,1.17
2019-05-09T15:23:30.603Z,1.23
2019-05-09T15:25:59.096Z,1.40
2019-05-09T15:28:29.089Z,1.33
2019-05-09T15:30:59.330Z,1.23
2019-05-09T15:33:28.096Z,1.20
2019-05-09T15:35:58.884Z,1.20
2019-05-09T15:38:29.039Z,1.10
2019-05-09T15:40:57.459Z,1.50
2019-05-09T15:43:26.679Z,1.50
2019-05-09T15:46:02.966Z,1.53
2019-05-09T15:48:31.426Z,1.30
2019-05-09T15:50:59.907Z,1.23
2019-05-09T15:53:28.375Z,1.20
2019-05-09T15:55:58.763Z,1.10
2019-05-09T15:58:28.762Z,1.23
2019-05-09T16:00:58.983Z,1.70
2019-05-09T16:03:27.986Z,1.20
2019-05-09T16:05:58.430Z,1.20
2019-05-09T16:08:28.783Z,1.57
2019-05-09T16:10:58.103Z,1.30
2019-05-09T16:13:28.522Z,1.20
2019-05-09T16:15:57.696Z,1.20
2019-05-09T16:18:28.649Z,1.20
2019-05-09T16:20:58.004Z,1.10
2019-05-09T16:23:28.968Z,1.33
2019-05-09T16:25:58.574Z,1.33
2019-05-09T16:28:27.194Z,1.30
2019-05-09T16:30:55.683Z,1.20
2019-05-09T16:33:24.142Z,1.00
2019-05-09T16:35:53.200Z,1.00
2019-05-09T16:38:21.762Z,0.90
2019-05-09T16:40:50.267Z,1.10
2019-05-09T16:43:18.734Z,1.10
2019-05-09T16:45:47.825Z,1.30
2019-05-09T16:48:17.883Z,1.23
2019-05-09T16:50:57.658Z,1.10
2019-05-09T16:53:18.555Z,1.30
2019-05-09T16:55:47.281Z,1.10
2019-05-09T16:58:18.568Z,1.17
2019-05-09T17:00:54.204Z,1.50
2019-05-09T17:03:22.681Z,1.80
2019-05-09T17:05:51.170Z,1.43
2019-05-09T17:08:19.651Z,1.50
2019-05-09T17:10:48.814Z,1.20
2019-05-09T17:13:19.345Z,1.33
2019-05-09T17:15:48.218Z,2.40
2019-05-09T17:18:18.953Z,2.40
2019-05-09T17:21:17.815Z,1.37
2019-05-09T17:23:35.081Z,3.20
2019-05-09T17:26:03.631Z,2.20
2019-05-09T17:28:32.097Z,3.53
2019-05-09T17:31:00.689Z,2.40
2019-05-09T17:33:29.149Z,6.80
2019-05-09T17:35:57.938Z,2.27
2019-05-09T17:38:27.809Z,2.40
2019-05-09T17:40:57.727Z,3.60
2019-05-09T17:43:27.807Z,5.43
2019-05-09T17:45:58.398Z,2.77
2019-05-09T17:48:28.543Z,1.80
2019-05-09T17:50:58.001Z,2.77
2019-05-09T17:53:29.283Z,2.80
2019-05-09T17:55:58.675Z,2.77
2019-05-09T17:58:32.488Z,2.70
2019-05-09T18:00:57.659Z,2.43
2019-05-09T18:03:28.886Z,2.40
2019-05-09T18:05:57.696Z,2.40
2019-05-09T18:08:28.321Z,2.93
2019-05-09T18:10:58.240Z,2.40
2019-05-09T18:13:29.770Z,2.60
2019-05-09T18:15:57.218Z,2.60
2019-05-09T18:18:28.155Z,3.23
2019-05-09T18:20:58.052Z,2.77
2019-05-09T18:23:28.330Z,3.00
2019-05-09T18:25:58.522Z,2.70
2019-05-09T18:28:29.114Z,2.77
2019-05-09T18:30:58.502Z,3.40
2019-05-09T18:33:34.832Z,3.23
2019-05-09T18:36:03.311Z,3.33
2019-05-09T18:38:33.914Z,2.90
2019-05-09T18:41:02.762Z,3.10
2019-05-09T18:43:31.220Z,3.40
2019-05-09T18:45:59.700Z,3.63
2019-05-09T18:48:28.191Z,3.17
2019-05-09T18:50:56.655Z,4.00
2019-05-09T18:53:25.133Z,3.60
2019-05-09T18:55:53.590Z,3.60
2019-05-09T18:58:22.114Z,3.53
2019-05-09T19:00:51.160Z,3.87
2019-05-09T19:03:19.643Z,4.70
2019-05-09T19:05:48.116Z,3.70
2019-05-09T19:08:16.597Z,3.67
2019-05-09T19:10:45.077Z,3.80
2019-05-09T19:13:13.591Z,5.60
2019-05-09T19:15:43.713Z,3.50
2019-05-09T19:18:13.841Z,3.97
2019-05-09T19:20:59.121Z,4.37
2019-05-09T19:23:27.737Z,3.90
2019-05-09T19:25:57.826Z,4.53
2019-05-09T19:28:26.305Z,4.30
2019-05-09T19:30:54.783Z,4.77
2019-05-09T19:33:23.269Z,4.67
2019-05-09T19:35:51.746Z,4.90
2019-05-09T19:38:20.271Z,4.30
2019-05-09T19:40:48.707Z,4.60
2019-05-09T19:43:17.179Z,4.13
2019-05-09T19:45:45.667Z,4.33
2019-05-09T19:48:14.215Z,4.37
2019-05-09T19:50:42.709Z,5.23
2019-05-09T19:53:11.181Z,4.20
2019-05-09T19:55:39.815Z,4.93
2019-05-09T19:58:08.346Z,4.70
2019-05-09T20:00:36.870Z,4.53
2019-05-09T20:03:05.349Z,4.63
2019-05-09T20:05:33.839Z,4.90
2019-05-09T20:08:02.306Z,4.90
2019-05-09T20:10:48.482Z,4.73
2019-05-09T20:13:18.617Z,3.80
2019-05-09T20:15:47.106Z,4.47
2019-05-09T20:18:19.986Z,3.93
2019-05-09T20:20:49.543Z,3.80
2019-05-09T20:23:18.020Z,3.80
2019-05-09T20:25:46.507Z,3.70
2019-05-09T20:28:15.113Z,3.80
2019-05-09T20:30:43.647Z,3.50
2019-05-09T20:33:12.150Z,4.13
2019-05-09T20:35:40.815Z,3.70
2019-05-09T20:38:09.426Z,3.97
2019-05-09T20:40:38.650Z,3.93
2019-05-09T20:43:07.308Z,3.53
2019-05-09T20:45:35.973Z,4.30
2019-05-09T20:48:05.364Z,3.90
2019-05-09T20:50:34.412Z,3.57
2019-05-09T20:53:09.481Z,3.97
2019-05-09T20:55:35.423Z,4.13
2019-05-09T20:58:05.328Z,3.77
2019-05-09T21:00:34.026Z,4.20
2019-05-09T21:03:02.743Z,4.83
2019-05-09T21:05:31.429Z,4.20
2019-05-09T21:08:00.076Z,3.90
2019-05-09T21:10:28.755Z,4.10
2019-05-09T21:12:57.418Z,4.40
2019-05-09T21:15:26.107Z,4.37
2019-05-09T21:17:54.757Z,4.53
2019-05-09T21:20:23.416Z,4.20
2019-05-09T21:22:52.059Z,4.40
2019-05-09T21:25:20.774Z,4.17
2019-05-09T21:27:49.436Z,4.30
2019-05-09T21:30:18.529Z,4.20
2019-05-09T21:32:47.202Z,3.77
2019-05-09T21:35:15.999Z,4.13
2019-05-09T21:37:44.500Z,3.80
2019-05-09T21:40:13.414Z,4.20
2019-05-09T21:42:41.903Z,4.60
2019-05-09T21:45:10.433Z,4.37
2019-05-09T21:47:38.946Z,4.43
2019-05-09T21:50:07.753Z,4.57
2019-05-09T21:52:36.316Z,4.07
2019-05-09T21:55:05.418Z,4.57
2019-05-09T21:57:33.904Z,5.00
2019-05-09T22:00:02.364Z,4.53
2019-05-09T22:02:30.913Z,5.23
2019-05-09T22:04:59.390Z,4.27
2019-05-09T22:07:27.909Z,4.80
2019-05-09T22:09:56.388Z,4.63
2019-05-09T22:12:24.889Z,4.60
2019-05-09T22:14:53.825Z,4.63
2019-05-09T22:17:23.947Z,4.23
2019-05-09T22:19:52.396Z,4.70
2019-05-09T22:22:20.882Z,4.13
2019-05-09T22:24:49.343Z,4.33
2019-05-09T22:27:17.837Z,4.50
2019-05-09T22:29:46.306Z,4.03
2019-05-09T22:32:14.804Z,4.40
2019-05-09T22:34:43.284Z,4.50
2019-05-09T22:37:11.768Z,4.73
2019-05-09T22:39:40.232Z,4.13
2019-05-09T22:42:08.732Z,4.77
2019-05-09T22:44:37.200Z,4.60
2019-05-09T22:47:05.736Z,4.60
2019-05-09T22:49:34.211Z,4.93
2019-05-09T22:52:02.711Z,4.53
2019-05-09T22:54:31.175Z,4.80
2019-05-09T22:56:59.676Z,4.50
2019-05-09T22:59:28.149Z,4.73
2019-05-09T23:01:56.636Z,5.43
2019-05-09T23:04:25.096Z,5.00
2019-05-09T23:06:53.686Z,5.20
2019-05-09T23:09:22.321Z,5.07
2019-05-09T23:11:50.774Z,5.00
2019-05-09T23:14:19.257Z,5.33
2019-05-09T23:16:50.435Z,5.20
2019-05-09T23:19:17.957Z,5.40
2019-05-09T23:21:46.419Z,4.90
2019-05-09T23:24:28.023Z,5.00
2019-05-09T23:26:46.755Z,5.67
2019-05-09T23:29:15.241Z,5.57
2019-05-09T23:32:00.086Z,5.57
2019-05-09T23:34:28.561Z,6.00
2019-05-09T23:36:57.034Z,6.03
2019-05-09T23:39:27.311Z,5.50
2019-05-09T23:41:55.815Z,5.30
2019-05-09T23:44:24.286Z,6.00
2019-05-09T23:46:52.758Z,5.57
2019-05-09T23:49:21.253Z,5.90
2019-05-09T23:51:50.061Z,4.83
2019-05-09T23:54:46.395Z,5.67
2019-05-09T23:57:29.300Z,5.27
